sensor_id;sensor_type;location;lat;lon;timestamp;pressure;altitude;pressure_sealevel;temperature;humidity
39209;BME280;24929;51.982;4.664;2022-11-30T00:02:23;77910.56;;;-143.36;nan
39209;BME280;24929;51.982;4.664;2022-11-30T00:04:49;77906.53;;;-143.36;nan
39209;BME280;24929;51.982;4.664;2022-11-30T00:07:14;77906.53;;;-143.36;nan
39209;BME280;24929;51.982;4.664;2022-11-30T00:09:40;77908.56;;;-143.36;nan
39209;BME280;24929;51.982;4.664;2022-11-30T00:12:05;77914.56;;;-143.36;nan
39209;BME280;24929;51.982;4.664;2022-11-30T00:14:30;77896.50;;;-143.36;nan
39209;BME280;24929;51.982;4.664;2022-11-30T00:16:56;77904.53;;;-143.36;nan
39209;BME280;24929;51.982;4.664;2022-11-30T00:19:21;77894.50;;;-143.36;nan
39209;BME280;24929;51.982;4.664;2022-11-30T00:21:47;77896.50;;;-143.36;nan
39209;BME280;24929;51.982;4.664;2022-11-30T00:24:13;77876.44;;;-143.36;nan
39209;BME280;24929;51.982;4.664;2022-11-30T00:26:38;77884.47;;;-143.36;nan
39209;BME280;24929;51.982;4.664;2022-11-30T00:29:03;77890.47;;;-143.36;nan
39209;BME280;24929;51.982;4.664;2022-11-30T00:31:29;77880.44;;;-143.36;nan
39209;BME280;24929;51.982;4.664;2022-11-30T00:33:54;77878.44;;;-143.36;nan
39209;BME280;24929;51.982;4.664;2022-11-30T00:36:21;77848.31;;;-143.36;nan
39209;BME280;24929;51.982;4.664;2022-11-30T00:38:47;77848.31;;;-143.36;nan
39209;BME280;24929;51.982;4.664;2022-11-30T00:41:14;77832.25;;;-143.36;nan
39209;BME280;24929;51.982;4.664;2022-11-30T00:43:40;77846.31;;;-143.36;nan
39209;BME280;24929;51.982;4.664;2022-11-30T00:46:06;77826.25;;;-143.36;nan
39209;BME280;24929;51.982;4.664;2022-11-30T00:48:33;77848.31;;;-143.36;nan
39209;BME280;24929;51.982;4.664;2022-11-30T00:50:59;77880.44;;;-143.36;nan
39209;BME280;24929;51.982;4.664;2022-11-30T00:53:24;77866.38;;;-143.36;nan
39209;BME280;24929;51.982;4.664;2022-11-30T00:55:50;77858.38;;;-143.36;nan
39209;BME280;24929;51.982;4.664;2022-11-30T00:58:15;77842.31;;;-143.36;nan
39209;BME280;24929;51.982;4.664;2022-11-30T01:00:41;77854.34;;;-143.36;nan
39209;BME280;24929;51.982;4.664;2022-11-30T01:03:07;77828.25;;;-143.36;nan
39209;BME280;24929;51.982;4.664;2022-11-30T01:05:33;77816.22;;;-143.36;nan
39209;BME280;24929;51.982;4.664;2022-11-30T01:08:03;77812.19;;;-143.36;nan
39209;BME280;24929;51.982;4.664;2022-11-30T01:10:29;77834.28;;;-143.36;nan
39209;BME280;24929;51.982;4.664;2022-11-30T01:12:55;77832.25;;;-143.36;nan
39209;BME280;24929;51.982;4.664;2022-11-30T01:15:21;77820.22;;;-143.36;nan
39209;BME280;24929;51.982;4.664;2022-11-30T01:17:47;77820.22;;;-143.36;nan
39209;BME280;24929;51.982;4.664;2022-11-30T01:20:12;77812.19;;;-143.36;nan
39209;BME280;24929;51.982;4.664;2022-11-30T01:22:37;77820.22;;;-143.36;nan
39209;BME280;24929;51.982;4.664;2022-11-30T01:25:03;77810.19;;;-143.36;nan
39209;BME280;24929;51.982;4.664;2022-11-30T01:27:29;77820.22;;;-143.36;nan
39209;BME280;24929;51.982;4.664;2022-11-30T01:29:54;77818.22;;;-143.36;nan
39209;BME280;24929;51.982;4.664;2022-11-30T01:32:19;77808.19;;;-143.36;nan
39209;BME280;24929;51.982;4.664;2022-11-30T01:34:45;77814.19;;;-143.36;nan
39209;BME280;24929;51.982;4.664;2022-11-30T01:37:10;77826.25;;;-143.36;nan
39209;BME280;24929;51.982;4.664;2022-11-30T01:39:35;77848.31;;;-143.36;nan
39209;BME280;24929;51.982;4.664;2022-11-30T01:42:01;77862.38;;;-143.36;nan
39209;BME280;24929;51.982;4.664;2022-11-30T01:49:31;77834.28;;;-143.36;nan
39209;BME280;24929;51.982;4.664;2022-11-30T01:52:05;77892.50;;;-143.36;nan
39209;BME280;24929;51.982;4.664;2022-11-30T01:54:36;77870.41;;;-143.36;nan
39209;BME280;24929;51.982;4.664;2022-11-30T01:57:12;77870.41;;;-143.36;nan
39209;BME280;24929;51.982;4.664;2022-11-30T01:59:39;77918.59;;;-143.36;nan
39209;BME280;24929;51.982;4.664;2022-11-30T02:02:04;77904.53;;;-143.36;nan
39209;BME280;24929;51.982;4.664;2022-11-30T02:04:32;77868.41;;;-143.36;nan
39209;BME280;24929;51.982;4.664;2022-11-30T02:07:00;77870.41;;;-143.36;nan
39209;BME280;24929;51.982;4.664;2022-11-30T02:09:27;77868.41;;;-143.36;nan
39209;BME280;24929;51.982;4.664;2022-11-30T02:11:53;77892.50;;;-143.36;nan
39209;BME280;24929;51.982;4.664;2022-11-30T02:14:29;77892.50;;;-143.36;nan
39209;BME280;24929;51.982;4.664;2022-11-30T02:28:05;77856.34;;;-143.36;nan
39209;BME280;24929;51.982;4.664;2022-11-30T02:30:34;77872.41;;;-143.36;nan
39209;BME280;24929;51.982;4.664;2022-11-30T02:33:09;77852.34;;;-143.36;nan
39209;BME280;24929;51.982;4.664;2022-11-30T02:35:39;77872.41;;;-143.36;nan
39209;BME280;24929;51.982;4.664;2022-11-30T02:38:07;77896.50;;;-143.36;nan
39209;BME280;24929;51.982;4.664;2022-11-30T02:40:33;77916.56;;;-143.36;nan
39209;BME280;24929;51.982;4.664;2022-11-30T02:43:00;77898.50;;;-143.36;nan
39209;BME280;24929;51.982;4.664;2022-11-30T02:48:27;77852.34;;;-143.36;nan
39209;BME280;24929;51.982;4.664;2022-11-30T02:51:00;77868.41;;;-143.36;nan
39209;BME280;24929;51.982;4.664;2022-11-30T02:53:27;77902.53;;;-143.36;nan
39209;BME280;24929;51.982;4.664;2022-11-30T02:55:53;77910.56;;;-143.36;nan
39209;BME280;24929;51.982;4.664;2022-11-30T02:58:19;77922.59;;;-143.36;nan
39209;BME280;24929;51.982;4.664;2022-11-30T03:00:45;77948.69;;;-143.36;nan
39209;BME280;24929;51.982;4.664;2022-11-30T03:03:11;77968.78;;;-143.36;nan
39209;BME280;24929;51.982;4.664;2022-11-30T03:05:36;77986.84;;;-143.36;nan
39209;BME280;24929;51.982;4.664;2022-11-30T03:08:02;77992.84;;;-143.36;nan
39209;BME280;24929;51.982;4.664;2022-11-30T03:10:27;77996.88;;;-143.36;nan
39209;BME280;24929;51.982;4.664;2022-11-30T03:12:56;77986.84;;;-143.36;nan
39209;BME280;24929;51.982;4.664;2022-11-30T03:15:22;78014.94;;;-143.36;nan
39209;BME280;24929;51.982;4.664;2022-11-30T03:17:47;78037.03;;;-143.36;nan
39209;BME280;24929;51.982;4.664;2022-11-30T03:20:12;78049.06;;;-143.36;nan
39209;BME280;24929;51.982;4.664;2022-11-30T03:22:38;78085.19;;;-143.36;nan
39209;BME280;24929;51.982;4.664;2022-11-30T03:25:03;78075.16;;;-143.36;nan
39209;BME280;24929;51.982;4.664;2022-11-30T03:27:29;78073.16;;;-143.36;nan
39209;BME280;24929;51.982;4.664;2022-11-30T03:29:54;78075.16;;;-143.36;nan
39209;BME280;24929;51.982;4.664;2022-11-30T03:32:19;78069.16;;;-143.36;nan
39209;BME280;24929;51.982;4.664;2022-11-30T03:34:45;78081.19;;;-143.36;nan
39209;BME280;24929;51.982;4.664;2022-11-30T03:37:10;78097.25;;;-143.36;nan
39209;BME280;24929;51.982;4.664;2022-11-30T03:39:36;78101.25;;;-143.36;nan
39209;BME280;24929;51.982;4.664;2022-11-30T03:42:01;78107.28;;;-143.36;nan
39209;BME280;24929;51.982;4.664;2022-11-30T03:44:27;78107.28;;;-143.36;nan
39209;BME280;24929;51.982;4.664;2022-11-30T03:46:54;78147.44;;;-143.36;nan
39209;BME280;24929;51.982;4.664;2022-11-30T03:49:19;78143.41;;;-143.36;nan
39209;BME280;24929;51.982;4.664;2022-11-30T03:51:44;78153.47;;;-143.36;nan
39209;BME280;24929;51.982;4.664;2022-11-30T03:54:10;78167.50;;;-143.36;nan
39209;BME280;24929;51.982;4.664;2022-11-30T03:56:35;78153.47;;;-143.36;nan
39209;BME280;24929;51.982;4.664;2022-11-30T03:59:00;78129.38;;;-143.36;nan
39209;BME280;24929;51.982;4.664;2022-11-30T04:01:26;78131.38;;;-143.36;nan
39209;BME280;24929;51.982;4.664;2022-11-30T04:03:52;78115.31;;;-143.36;nan
39209;BME280;24929;51.982;4.664;2022-11-30T04:06:19;78125.34;;;-143.36;nan
39209;BME280;24929;51.982;4.664;2022-11-30T04:08:45;78157.47;;;-143.36;nan
39209;BME280;24929;51.982;4.664;2022-11-30T04:11:14;78109.28;;;-143.36;nan
39209;BME280;24929;51.982;4.664;2022-11-30T04:13:40;78155.47;;;-143.36;nan
39209;BME280;24929;51.982;4.664;2022-11-30T04:16:06;78141.41;;;-143.36;nan
39209;BME280;24929;51.982;4.664;2022-11-30T04:18:33;78127.38;;;-143.36;nan
39209;BME280;24929;51.982;4.664;2022-11-30T04:21:00;78147.44;;;-143.36;nan
39209;BME280;24929;51.982;4.664;2022-11-30T04:23:28;78145.44;;;-143.36;nan
39209;BME280;24929;51.982;4.664;2022-11-30T04:25:56;78149.44;;;-143.36;nan
39209;BME280;24929;51.982;4.664;2022-11-30T04:28:21;78169.53;;;-143.36;nan
39209;BME280;24929;51.982;4.664;2022-11-30T04:30:46;78175.53;;;-143.36;nan
39209;BME280;24929;51.982;4.664;2022-11-30T04:33:13;78165.50;;;-143.36;nan
39209;BME280;24929;51.982;4.664;2022-11-30T04:35:41;78153.47;;;-143.36;nan
39209;BME280;24929;51.982;4.664;2022-11-30T04:38:07;78163.50;;;-143.36;nan
39209;BME280;24929;51.982;4.664;2022-11-30T04:40:32;78147.44;;;-143.36;nan
39209;BME280;24929;51.982;4.664;2022-11-30T04:42:57;78157.47;;;-143.36;nan
39209;BME280;24929;51.982;4.664;2022-11-30T04:45:23;78117.31;;;-143.36;nan
39209;BME280;24929;51.982;4.664;2022-11-30T04:47:48;78111.31;;;-143.36;nan
39209;BME280;24929;51.982;4.664;2022-11-30T04:50:13;78123.34;;;-143.36;nan
39209;BME280;24929;51.982;4.664;2022-11-30T04:52:39;78099.25;;;-143.36;nan
39209;BME280;24929;51.982;4.664;2022-11-30T04:55:04;78065.13;;;-143.36;nan
39209;BME280;24929;51.982;4.664;2022-11-30T04:57:30;78081.19;;;-143.36;nan
39209;BME280;24929;51.982;4.664;2022-11-30T04:59:55;78111.31;;;-143.36;nan
39209;BME280;24929;51.982;4.664;2022-11-30T05:02:21;78101.25;;;-143.36;nan
39209;BME280;24929;51.982;4.664;2022-11-30T05:04:46;78115.31;;;-143.36;nan
39209;BME280;24929;51.982;4.664;2022-11-30T05:07:11;78129.38;;;-143.36;nan
39209;BME280;24929;51.982;4.664;2022-11-30T05:09:37;78109.28;;;-143.36;nan
39209;BME280;24929;51.982;4.664;2022-11-30T05:12:02;78115.31;;;-143.36;nan
39209;BME280;24929;51.982;4.664;2022-11-30T05:14:28;78153.47;;;-143.36;nan
39209;BME280;24929;51.982;4.664;2022-11-30T05:16:53;78145.44;;;-143.36;nan
39209;BME280;24929;51.982;4.664;2022-11-30T05:19:18;78137.41;;;-143.36;nan
39209;BME280;24929;51.982;4.664;2022-11-30T05:21:44;78123.34;;;-143.36;nan
39209;BME280;24929;51.982;4.664;2022-11-30T05:24:09;78103.28;;;-143.36;nan
39209;BME280;24929;51.982;4.664;2022-11-30T05:26:35;78081.19;;;-143.36;nan
39209;BME280;24929;51.982;4.664;2022-11-30T05:29:03;78069.16;;;-143.36;nan
39209;BME280;24929;51.982;4.664;2022-11-30T05:31:28;78111.31;;;-143.36;nan
39209;BME280;24929;51.982;4.664;2022-11-30T05:33:54;78101.25;;;-143.36;nan
39209;BME280;24929;51.982;4.664;2022-11-30T05:36:20;78087.22;;;-143.36;nan
39209;BME280;24929;51.982;4.664;2022-11-30T05:45:47;78113.31;;;-143.36;nan
39209;BME280;24929;51.982;4.664;2022-11-30T05:48:13;78119.34;;;-143.36;nan
39209;BME280;24929;51.982;4.664;2022-11-30T05:50:38;78121.34;;;-143.36;nan
39209;BME280;24929;51.982;4.664;2022-11-30T05:53:03;78131.38;;;-143.36;nan
39209;BME280;24929;51.982;4.664;2022-11-30T05:55:29;78119.34;;;-143.36;nan
39209;BME280;24929;51.982;4.664;2022-11-30T05:57:56;78127.38;;;-143.36;nan
39209;BME280;24929;51.982;4.664;2022-11-30T06:00:22;78109.28;;;-143.36;nan
39209;BME280;24929;51.982;4.664;2022-11-30T06:02:48;78137.41;;;-143.36;nan
39209;BME280;24929;51.982;4.664;2022-11-30T06:05:18;78121.34;;;-143.36;nan
39209;BME280;24929;51.982;4.664;2022-11-30T06:07:44;78113.31;;;-143.36;nan
39209;BME280;24929;51.982;4.664;2022-11-30T06:10:09;78101.25;;;-143.36;nan
39209;BME280;24929;51.982;4.664;2022-11-30T06:12:35;78105.28;;;-143.36;nan
39209;BME280;24929;51.982;4.664;2022-11-30T06:15:00;78109.28;;;-143.36;nan
39209;BME280;24929;51.982;4.664;2022-11-30T06:17:25;78113.31;;;-143.36;nan
39209;BME280;24929;51.982;4.664;2022-11-30T06:19:51;78109.28;;;-143.36;nan
39209;BME280;24929;51.982;4.664;2022-11-30T06:22:16;78111.31;;;-143.36;nan
39209;BME280;24929;51.982;4.664;2022-11-30T06:24:42;78117.31;;;-143.36;nan
39209;BME280;24929;51.982;4.664;2022-11-30T06:27:07;78119.34;;;-143.36;nan
39209;BME280;24929;51.982;4.664;2022-11-30T06:29:32;78155.47;;;-143.36;nan
39209;BME280;24929;51.982;4.664;2022-11-30T06:31:58;78127.38;;;-143.36;nan
39209;BME280;24929;51.982;4.664;2022-11-30T06:34:23;78123.34;;;-143.36;nan
39209;BME280;24929;51.982;4.664;2022-11-30T06:36:49;78105.28;;;-143.36;nan
39209;BME280;24929;51.982;4.664;2022-11-30T06:39:14;78081.19;;;-143.36;nan
39209;BME280;24929;51.982;4.664;2022-11-30T06:41:39;78073.16;;;-143.36;nan
39209;BME280;24929;51.982;4.664;2022-11-30T06:44:08;78041.03;;;-143.36;nan
39209;BME280;24929;51.982;4.664;2022-11-30T06:46:34;78083.19;;;-143.36;nan
39209;BME280;24929;51.982;4.664;2022-11-30T06:49:00;78077.19;;;-143.36;nan
39209;BME280;24929;51.982;4.664;2022-11-30T06:51:25;78083.19;;;-143.36;nan
39209;BME280;24929;51.982;4.664;2022-11-30T06:53:51;78077.19;;;-143.36;nan
39209;BME280;24929;51.982;4.664;2022-11-30T06:56:17;78047.06;;;-143.36;nan
39209;BME280;24929;51.982;4.664;2022-11-30T06:58:43;78053.09;;;-143.36;nan
39209;BME280;24929;51.982;4.664;2022-11-30T07:01:11;78049.06;;;-143.36;nan
39209;BME280;24929;51.982;4.664;2022-11-30T07:03:52;78002.91;;;-143.36;nan
39209;BME280;24929;51.982;4.664;2022-11-30T07:06:17;78075.16;;;-143.36;nan
39209;BME280;24929;51.982;4.664;2022-11-30T07:08:43;78075.16;;;-143.36;nan
39209;BME280;24929;51.982;4.664;2022-11-30T07:11:09;78047.06;;;-143.36;nan
39209;BME280;24929;51.982;4.664;2022-11-30T07:13:35;78059.09;;;-143.36;nan
39209;BME280;24929;51.982;4.664;2022-11-30T07:16:05;78043.03;;;-143.36;nan
39209;BME280;24929;51.982;4.664;2022-11-30T07:18:31;78075.16;;;-143.36;nan
39209;BME280;24929;51.982;4.664;2022-11-30T07:20:58;78071.16;;;-143.36;nan
39209;BME280;24929;51.982;4.664;2022-11-30T07:23:25;78105.28;;;-143.36;nan
39209;BME280;24929;51.982;4.664;2022-11-30T07:26:08;78105.28;;;-143.36;nan
39209;BME280;24929;51.982;4.664;2022-11-30T07:28:41;78091.22;;;-143.36;nan
39209;BME280;24929;51.982;4.664;2022-11-30T07:31:20;78057.09;;;-143.36;nan
39209;BME280;24929;51.982;4.664;2022-11-30T07:33:47;78085.19;;;-143.36;nan
39209;BME280;24929;51.982;4.664;2022-11-30T07:36:14;78089.22;;;-143.36;nan
39209;BME280;24929;51.982;4.664;2022-11-30T07:38:39;78079.19;;;-143.36;nan
39209;BME280;24929;51.982;4.664;2022-11-30T07:41:05;78069.16;;;-143.36;nan
39209;BME280;24929;51.982;4.664;2022-11-30T07:43:31;78099.25;;;-143.36;nan
39209;BME280;24929;51.982;4.664;2022-11-30T07:45:57;78129.38;;;-143.36;nan
39209;BME280;24929;51.982;4.664;2022-11-30T07:48:23;78139.41;;;-143.36;nan
39209;BME280;24929;51.982;4.664;2022-11-30T07:50:48;78117.31;;;-143.36;nan
39209;BME280;24929;51.982;4.664;2022-11-30T07:53:14;78101.25;;;-143.36;nan
39209;BME280;24929;51.982;4.664;2022-11-30T07:55:40;78107.28;;;-143.36;nan
39209;BME280;24929;51.982;4.664;2022-11-30T07:58:05;78121.34;;;-143.36;nan
39209;BME280;24929;51.982;4.664;2022-11-30T08:00:31;78117.31;;;-143.36;nan
39209;BME280;24929;51.982;4.664;2022-11-30T08:02:56;78167.50;;;-143.36;nan
39209;BME280;24929;51.982;4.664;2022-11-30T08:05:22;78135.41;;;-143.36;nan
39209;BME280;24929;51.982;4.664;2022-11-30T08:07:51;78097.25;;;-143.36;nan
39209;BME280;24929;51.982;4.664;2022-11-30T08:10:21;78095.25;;;-143.36;nan
39209;BME280;24929;51.982;4.664;2022-11-30T08:12:47;78117.31;;;-143.36;nan
39209;BME280;24929;51.982;4.664;2022-11-30T08:15:13;78071.16;;;-143.36;nan
39209;BME280;24929;51.982;4.664;2022-11-30T08:17:38;78059.09;;;-143.36;nan
39209;BME280;24929;51.982;4.664;2022-11-30T08:20:05;78045.06;;;-143.36;nan
39209;BME280;24929;51.982;4.664;2022-11-30T08:22:31;78049.06;;;-143.36;nan
39209;BME280;24929;51.982;4.664;2022-11-30T08:24:56;78051.06;;;-143.36;nan
39209;BME280;24929;51.982;4.664;2022-11-30T08:27:22;78051.06;;;-143.36;nan
39209;BME280;24929;51.982;4.664;2022-11-30T08:29:47;78031.00;;;-143.36;nan
39209;BME280;24929;51.982;4.664;2022-11-30T08:32:12;78027.00;;;-143.36;nan
39209;BME280;24929;51.982;4.664;2022-11-30T08:34:38;78016.94;;;-143.36;nan
39209;BME280;24929;51.982;4.664;2022-11-30T08:37:03;78010.94;;;-143.36;nan
39209;BME280;24929;51.982;4.664;2022-11-30T08:39:28;78033.00;;;-143.36;nan
39209;BME280;24929;51.982;4.664;2022-11-30T08:41:57;77986.84;;;-143.36;nan
39209;BME280;24929;51.982;4.664;2022-11-30T08:44:22;78018.97;;;-143.36;nan
39209;BME280;24929;51.982;4.664;2022-11-30T08:46:47;78020.97;;;-143.36;nan
39209;BME280;24929;51.982;4.664;2022-11-30T08:49:13;78022.97;;;-143.36;nan
39209;BME280;24929;51.982;4.664;2022-11-30T08:51:38;78012.94;;;-143.36;nan
39209;BME280;24929;51.982;4.664;2022-11-30T08:54:04;78014.94;;;-143.36;nan
39209;BME280;24929;51.982;4.664;2022-11-30T08:56:29;78012.94;;;-143.36;nan
39209;BME280;24929;51.982;4.664;2022-11-30T08:58:54;78004.91;;;-143.36;nan
39209;BME280;24929;51.982;4.664;2022-11-30T09:01:24;77958.72;;;-143.36;nan
39209;BME280;24929;51.982;4.664;2022-11-30T09:03:52;77980.81;;;-143.36;nan
39209;BME280;24929;51.982;4.664;2022-11-30T09:06:20;77960.75;;;-143.36;nan
39209;BME280;24929;51.982;4.664;2022-11-30T09:08:48;77960.75;;;-143.36;nan
39209;BME280;24929;51.982;4.664;2022-11-30T09:11:25;77924.59;;;-143.36;nan
39209;BME280;24929;51.982;4.664;2022-11-30T09:13:53;77936.66;;;-143.36;nan
39209;BME280;24929;51.982;4.664;2022-11-30T09:16:19;77952.72;;;-143.36;nan
39209;BME280;24929;51.982;4.664;2022-11-30T09:18:45;77954.72;;;-143.36;nan
39209;BME280;24929;51.982;4.664;2022-11-30T09:21:13;77932.63;;;-143.36;nan
39209;BME280;24929;51.982;4.664;2022-11-30T09:23:39;77944.69;;;-143.36;nan
39209;BME280;24929;51.982;4.664;2022-11-30T09:26:09;77908.56;;;-143.36;nan
39209;BME280;24929;51.982;4.664;2022-11-30T09:28:36;77928.63;;;-143.36;nan
39209;BME280;24929;51.982;4.664;2022-11-30T09:31:05;77894.50;;;-143.36;nan
39209;BME280;24929;51.982;4.664;2022-11-30T09:33:32;77954.72;;;-143.36;nan
39209;BME280;24929;51.982;4.664;2022-11-30T09:36:02;77966.75;;;-143.36;nan
39209;BME280;24929;51.982;4.664;2022-11-30T09:38:28;77966.75;;;-143.36;nan
39209;BME280;24929;51.982;4.664;2022-11-30T09:40:55;77978.81;;;-143.36;nan
39209;BME280;24929;51.982;4.664;2022-11-30T09:46:06;77892.50;;;-143.36;nan
39209;BME280;24929;51.982;4.664;2022-11-30T09:51:25;77824.25;;;-143.36;nan
39209;BME280;24929;51.982;4.664;2022-11-30T09:53:59;77842.31;;;-143.36;nan
39209;BME280;24929;51.982;4.664;2022-11-30T09:56:33;77872.41;;;-143.36;nan
39209;BME280;24929;51.982;4.664;2022-11-30T09:59:05;77864.38;;;-143.36;nan
39209;BME280;24929;51.982;4.664;2022-11-30T10:01:36;77852.34;;;-143.36;nan
39209;BME280;24929;51.982;4.664;2022-11-30T10:04:02;77854.34;;;-143.36;nan
39209;BME280;24929;51.982;4.664;2022-11-30T10:06:45;77812.19;;;-143.36;nan
39209;BME280;24929;51.982;4.664;2022-11-30T10:12:23;77802.16;;;-143.36;nan
39209;BME280;24929;51.982;4.664;2022-11-30T10:17:44;77780.06;;;-143.36;nan
39209;BME280;24929;51.982;4.664;2022-11-30T10:26:14;77758.00;;;-143.36;nan
39209;BME280;24929;51.982;4.664;2022-11-30T10:31:13;77820.22;;;-143.36;nan
39209;BME280;24929;51.982;4.664;2022-11-30T10:33:50;77854.34;;;-143.36;nan
39209;BME280;24929;51.982;4.664;2022-11-30T10:36:38;77870.41;;;-143.36;nan
39209;BME280;24929;51.982;4.664;2022-11-30T10:39:33;77778.06;;;-143.36;nan
39209;BME280;24929;51.982;4.664;2022-11-30T10:42:09;77822.22;;;-143.36;nan
39209;BME280;24929;51.982;4.664;2022-11-30T10:44:45;77796.13;;;-143.36;nan
39209;BME280;24929;51.982;4.664;2022-11-30T10:47:19;77804.16;;;-143.36;nan
39209;BME280;24929;51.982;4.664;2022-11-30T10:49:51;77798.13;;;-143.36;nan
39209;BME280;24929;51.982;4.664;2022-11-30T10:52:26;77760.00;;;-143.36;nan
39209;BME280;24929;51.982;4.664;2022-11-30T10:54:54;77768.03;;;-143.36;nan
39209;BME280;24929;51.982;4.664;2022-11-30T10:57:26;77733.91;;;-143.36;nan
39209;BME280;24929;51.982;4.664;2022-11-30T10:59:53;77727.88;;;-143.36;nan
39209;BME280;24929;51.982;4.664;2022-11-30T11:02:41;77685.72;;;-143.36;nan
39209;BME280;24929;51.982;4.664;2022-11-30T11:07:50;77643.56;;;-143.36;nan
39209;BME280;24929;51.982;4.664;2022-11-30T11:10:50;77659.63;;;-143.36;nan
39209;BME280;24929;51.982;4.664;2022-11-30T11:13:39;77687.75;;;-143.36;nan
39209;BME280;24929;51.982;4.664;2022-11-30T11:16:10;77635.56;;;-143.36;nan
39209;BME280;24929;51.982;4.664;2022-11-30T11:18:51;77649.59;;;-143.36;nan
39209;BME280;24929;51.982;4.664;2022-11-30T11:21:19;77659.63;;;-143.36;nan
39209;BME280;24929;51.982;4.664;2022-11-30T11:23:46;77735.91;;;-143.36;nan
39209;BME280;24929;51.982;4.664;2022-11-30T11:26:27;77707.81;;;-143.36;nan
39209;BME280;24929;51.982;4.664;2022-11-30T11:28:55;77751.97;;;-143.36;nan
39209;BME280;24929;51.982;4.664;2022-11-30T11:31:36;77707.81;;;-143.36;nan
39209;BME280;24929;51.982;4.664;2022-11-30T11:34:04;77707.81;;;-143.36;nan
39209;BME280;24929;51.982;4.664;2022-11-30T11:36:43;77719.84;;;-143.36;nan
39209;BME280;24929;51.982;4.664;2022-11-30T11:39:24;77699.78;;;-143.36;nan
39209;BME280;24929;51.982;4.664;2022-11-30T11:41:51;77709.81;;;-143.36;nan
39209;BME280;24929;51.982;4.664;2022-11-30T11:44:20;77713.84;;;-143.36;nan
39209;BME280;24929;51.982;4.664;2022-11-30T11:46:54;77651.59;;;-143.36;nan
39209;BME280;24929;51.982;4.664;2022-11-30T11:49:27;77639.56;;;-143.36;nan
39209;BME280;24929;51.982;4.664;2022-11-30T11:52:03;77617.47;;;-143.36;nan
39209;BME280;24929;51.982;4.664;2022-11-30T11:54:40;77631.53;;;-143.36;nan
39209;BME280;24929;51.982;4.664;2022-11-30T12:08:06;77661.66;;;-143.36;nan
39209;BME280;24929;51.982;4.664;2022-11-30T12:10:57;77687.75;;;-143.36;nan
39209;BME280;24929;51.982;4.664;2022-11-30T12:13:37;77675.69;;;-143.36;nan
39209;BME280;24929;51.982;4.664;2022-11-30T12:18:48;77737.91;;;-143.36;nan
39209;BME280;24929;51.982;4.664;2022-11-30T12:24:11;77717.84;;;-143.36;nan
39209;BME280;24929;51.982;4.664;2022-11-30T12:26:45;77679.72;;;-143.36;nan
39209;BME280;24929;51.982;4.664;2022-11-30T12:29:15;77753.97;;;-143.36;nan
39209;BME280;24929;51.982;4.664;2022-11-30T12:34:46;77617.47;;;-143.36;nan
39209;BME280;24929;51.982;4.664;2022-11-30T12:40:02;77693.75;;;-143.36;nan
39209;BME280;24929;51.982;4.664;2022-11-30T12:45:38;77709.81;;;-143.36;nan
39209;BME280;24929;51.982;4.664;2022-11-30T12:53:23;77745.94;;;-143.36;nan
39209;BME280;24929;51.982;4.664;2022-11-30T13:07:24;77733.91;;;-143.36;nan
39209;BME280;24929;51.982;4.664;2022-11-30T13:09:50;77703.81;;;-143.36;nan
39209;BME280;24929;51.982;4.664;2022-11-30T13:12:24;77731.91;;;-143.36;nan
39209;BME280;24929;51.982;4.664;2022-11-30T13:15:01;77776.06;;;-143.36;nan
39209;BME280;24929;51.982;4.664;2022-11-30T13:17:28;77784.09;;;-143.36;nan
39209;BME280;24929;51.982;4.664;2022-11-30T13:36:04;77770.03;;;-143.36;nan
39209;BME280;24929;51.982;4.664;2022-11-30T13:38:30;77782.09;;;-143.36;nan
39209;BME280;24929;51.982;4.664;2022-11-30T13:41:00;77749.97;;;-143.36;nan
39209;BME280;24929;51.982;4.664;2022-11-30T13:43:29;77802.16;;;-143.36;nan
39209;BME280;24929;51.982;4.664;2022-11-30T13:46:25;77770.03;;;-143.36;nan
39209;BME280;24929;51.982;4.664;2022-11-30T13:49:11;77770.03;;;-143.36;nan
39209;BME280;24929;51.982;4.664;2022-11-30T13:51:42;77862.38;;;-143.36;nan
39209;BME280;24929;51.982;4.664;2022-11-30T13:54:47;77810.19;;;-143.36;nan
39209;BME280;24929;51.982;4.664;2022-11-30T13:59:58;77844.31;;;-143.36;nan
39209;BME280;24929;51.982;4.664;2022-11-30T14:08:29;77816.22;;;-143.36;nan
39209;BME280;24929;51.982;4.664;2022-11-30T14:10:33;77860.38;;;-143.36;nan
39209;BME280;24929;51.982;4.664;2022-11-30T14:13:01;77860.38;;;-143.36;nan
39209;BME280;24929;51.982;4.664;2022-11-30T14:17:56;77854.34;;;-143.36;nan
39209;BME280;24929;51.982;4.664;2022-11-30T14:20:23;77858.38;;;-143.36;nan
39209;BME280;24929;51.982;4.664;2022-11-30T14:22:51;77848.31;;;-143.36;nan
39209;BME280;24929;51.982;4.664;2022-11-30T14:25:19;77826.25;;;-143.36;nan
39209;BME280;24929;51.982;4.664;2022-11-30T14:27:46;77838.28;;;-143.36;nan
39209;BME280;24929;51.982;4.664;2022-11-30T14:30:16;77848.31;;;-143.36;nan
39209;BME280;24929;51.982;4.664;2022-11-30T14:32:48;77858.38;;;-143.36;nan
39209;BME280;24929;51.982;4.664;2022-11-30T14:35:18;77882.44;;;-143.36;nan
39209;BME280;24929;51.982;4.664;2022-11-30T14:37:55;77876.44;;;-143.36;nan
39209;BME280;24929;51.982;4.664;2022-11-30T14:40:23;77912.56;;;-143.36;nan
39209;BME280;24929;51.982;4.664;2022-11-30T14:42:59;77884.47;;;-143.36;nan
39209;BME280;24929;51.982;4.664;2022-11-30T14:45:30;77948.69;;;-143.36;nan
39209;BME280;24929;51.982;4.664;2022-11-30T14:50:32;77978.81;;;-143.36;nan
39209;BME280;24929;51.982;4.664;2022-11-30T14:55:50;77884.47;;;-143.36;nan
39209;BME280;24929;51.982;4.664;2022-11-30T14:58:31;77894.50;;;-143.36;nan
39209;BME280;24929;51.982;4.664;2022-11-30T15:01:02;77882.44;;;-143.36;nan
39209;BME280;24929;51.982;4.664;2022-11-30T15:03:37;78004.91;;;-143.36;nan
39209;BME280;24929;51.982;4.664;2022-11-30T15:06:03;77948.69;;;-143.36;nan
39209;BME280;24929;51.982;4.664;2022-11-30T15:08:45;77926.63;;;-143.36;nan
39209;BME280;24929;51.982;4.664;2022-11-30T15:11:13;77972.78;;;-143.36;nan